Time,TemperatureF,DewpointF,PressureIn,WindDirection,WindDirectionDegrees,WindSpeedMPH,WindSpeedGustMPH,Humidity,HourlyPrecipIn,Conditions,Clouds,dailyrainin,SoftwareType,DateUTC
2013-06-12 00:03:00,65.5,-99.9,-100.00,North,-999,0.0,0.0,-999,0.00,,,-99.99,WeatherLink 5.4,2013-06-12 04:03:00,
2013-06-12 00:33:00,64.4,-99.9,-100.00,North,-999,0.0,0.0,-999,0.00,,,-99.99,WeatherLink 5.4,2013-06-12 04:33:00,
2013-06-12 01:03:00,64.4,-99.9,-100.00,North,-999,0.0,0.0,-999,0.00,,,-99.99,WeatherLink 5.4,2013-06-12 05:03:00,
2013-06-12 01:33:00,64.6,-99.9,-100.00,WNW,292,0.0,2.0,-999,0.00,,,-99.99,WeatherLink 5.4,2013-06-12 05:33:00,
2013-06-12 02:03:00,64.7,-99.9,-100.00,North,-999,0.0,0.0,-999,0.00,,,-99.99,WeatherLink 5.4,2013-06-12 06:03:00,
2013-06-12 02:33:00,64.5,-99.9,-100.00,North,-999,0.0,0.0,-999,0.00,,,-99.99,WeatherLink 5.4,2013-06-12 06:33:00,
2013-06-12 03:03:00,64.1,-99.9,-100.00,North,-999,0.0,0.0,-999,0.00,,,-99.99,WeatherLink 5.4,2013-06-12 07:03:00,
2013-06-12 03:33:00,64.4,-99.9,-100.00,North,-999,0.0,0.0,-999,0.00,,,-99.99,WeatherLink 5.4,2013-06-12 07:33:00,
2013-06-12 04:03:00,65.3,-99.9,-100.00,North,-999,0.0,0.0,-999,0.00,,,-99.99,WeatherLink 5.4,2013-06-12 08:03:00,
2013-06-12 04:33:00,65.4,-99.9,-100.00,North,-999,0.0,0.0,-999,0.00,,,-99.99,WeatherLink 5.4,2013-06-12 08:33:00,
2013-06-12 05:03:00,65.3,-99.9,-100.00,WNW,292,0.0,4.0,-999,0.00,,,-99.99,WeatherLink 5.4,2013-06-12 09:03:00,
2013-06-12 05:33:00,65.2,-99.9,-100.00,WNW,292,0.0,4.0,-999,0.00,,,-99.99,WeatherLink 5.4,2013-06-12 09:33:00,
2013-06-12 06:03:00,64.8,-99.9,-100.00,North,-999,0.0,1.0,-999,0.00,,,-99.99,WeatherLink 5.4,2013-06-12 10:03:00,
2013-06-12 06:33:00,64.7,-99.9,-100.00,WNW,292,0.0,2.0,-999,0.00,,,-99.99,WeatherLink 5.4,2013-06-12 10:33:00,
2013-06-12 07:03:00,64.7,-99.9,-100.00,WNW,292,0.0,3.0,-999,0.00,,,-99.99,WeatherLink 5.4,2013-06-12 11:03:00,
2013-06-12 07:33:00,64.8,-99.9,-100.00,North,-999,0.0,0.0,-999,0.00,,,-99.99,WeatherLink 5.4,2013-06-12 11:33:00,
2013-06-12 08:03:00,65.7,-99.9,-100.00,WNW,292,0.0,4.0,-999,0.00,,,-99.99,WeatherLink 5.4,2013-06-12 12:03:00,
2013-06-12 08:33:00,66.5,-99.9,-100.00,North,-999,0.0,0.0,-999,0.00,,,-99.99,WeatherLink 5.4,2013-06-12 12:33:00,
2013-06-12 09:03:00,67.7,-99.9,-100.00,WNW,292,0.0,3.0,-999,0.00,,,-99.99,WeatherLink 5.4,2013-06-12 13:03:00,
2013-06-12 09:33:00,68.7,-99.9,-100.00,WNW,292,0.0,2.0,-999,0.00,,,-99.99,WeatherLink 5.4,2013-06-12 13:33:00,
2013-06-12 10:03:00,70.2,-99.9,-100.00,WNW,292,0.0,2.0,-999,0.00,,,-99.99,WeatherLink 5.4,2013-06-12 14:03:00,
2013-06-12 10:33:00,71.5,-99.9,-100.00,NNW,337,0.0,5.0,-999,0.00,,,-99.99,WeatherLink 5.4,2013-06-12 14:33:00,
2013-06-12 11:03:00,73.4,-99.9,-100.00,WSW,247,0.0,5.0,-999,0.00,,,-99.99,WeatherLink 5.4,2013-06-12 15:03:00,
2013-06-12 11:33:00,75.0,-99.9,-100.00,West,270,0.0,5.0,-999,0.00,,,-99.99,WeatherLink 5.4,2013-06-12 15:33:00,
2013-06-12 12:03:00,75.4,-99.9,-100.00,WNW,292,0.0,4.0,-999,0.00,,,-99.99,WeatherLink 5.4,2013-06-12 16:03:00,
2013-06-12 12:33:00,75.8,-99.9,-100.00,WNW,292,0.0,5.0,-999,0.00,,,-99.99,WeatherLink 5.4,2013-06-12 16:33:00,
2013-06-12 13:03:00,74.5,-99.9,-100.00,WNW,292,0.0,5.0,-999,0.00,,,-99.99,WeatherLink 5.4,2013-06-12 17:03:00,
2013-06-12 13:33:00,74.6,-99.9,-100.00,WSW,247,0.0,4.0,-999,0.00,,,-99.99,WeatherLink 5.4,2013-06-12 17:33:00,
2013-06-12 14:03:00,76.0,-99.9,-100.00,West,270,0.0,7.0,-999,0.00,,,-99.99,WeatherLink 5.4,2013-06-12 18:03:00,
2013-06-12 14:33:00,75.1,-99.9,-100.00,WNW,292,0.0,5.0,-999,0.00,,,-99.99,WeatherLink 5.4,2013-06-12 18:33:00,
2013-06-12 15:03:00,73.7,-99.9,-100.00,North,-999,0.0,0.0,-999,0.00,,,-99.99,WeatherLink 5.4,2013-06-12 19:03:00,
2013-06-12 15:33:00,73.7,-99.9,-100.00,SW,225,0.0,6.0,-999,0.00,,,-99.99,WeatherLink 5.4,2013-06-12 19:33:00,
2013-06-12 16:03:00,73.7,-99.9,-100.00,SW,225,1.0,7.0,-999,0.00,,,-99.99,WeatherLink 5.4,2013-06-12 20:03:00,
2013-06-12 16:33:00,73.6,-99.9,-100.00,SSW,202,1.0,7.0,-999,0.00,,,-99.99,WeatherLink 5.4,2013-06-12 20:33:00,
2013-06-12 17:03:00,74.0,-99.9,-100.00,SW,225,2.0,8.0,-999,0.00,,,-99.99,WeatherLink 5.4,2013-06-12 21:03:00,
2013-06-12 17:33:00,75.1,-99.9,-100.00,WSW,247,0.0,3.0,-999,0.00,,,-99.99,WeatherLink 5.4,2013-06-12 21:33:00,
2013-06-12 18:03:00,75.0,-99.9,-100.00,WNW,292,0.0,5.0,-999,0.00,,,-99.99,WeatherLink 5.4,2013-06-12 22:03:00,
2013-06-12 18:33:00,74.5,-99.9,-100.00,West,270,0.0,4.0,-999,0.00,,,-99.99,WeatherLink 5.4,2013-06-12 22:33:00,
2013-06-12 19:03:00,74.0,-99.9,-100.00,North,-999,0.0,0.0,-999,0.00,,,-99.99,WeatherLink 5.4,2013-06-12 23:03:00,
2013-06-12 19:33:00,73.3,-99.9,-100.00,North,-999,0.0,0.0,-999,0.00,,,-99.99,WeatherLink 5.4,2013-06-12 23:33:00,
2013-06-12 20:03:00,72.5,-99.9,-100.00,North,-999,0.0,0.0,-999,0.00,,,-99.99,WeatherLink 5.4,2013-06-13 00:03:00,
2013-06-12 20:33:00,71.9,-99.9,-100.00,North,-999,0.0,0.0,-999,0.00,,,-99.99,WeatherLink 5.4,2013-06-13 00:33:00,
2013-06-12 21:03:00,71.4,-99.9,-100.00,North,-999,0.0,0.0,-999,0.00,,,-99.99,WeatherLink 5.4,2013-06-13 01:03:00,
2013-06-12 21:33:00,70.7,-99.9,-100.00,North,-999,0.0,0.0,-999,0.00,,,-99.99,WeatherLink 5.4,2013-06-13 01:33:00,
2013-06-12 22:03:00,70.1,-99.9,-100.00,North,-999,0.0,0.0,-999,0.00,,,-99.99,WeatherLink 5.4,2013-06-13 02:03:00,
2013-06-12 22:33:00,70.0,-99.9,-100.00,North,-999,0.0,0.0,-999,0.00,,,-99.99,WeatherLink 5.4,2013-06-13 02:33:00,
2013-06-12 23:03:00,69.7,-99.9,-100.00,North,-999,0.0,0.0,-999,0.00,,,-99.99,WeatherLink 5.4,2013-06-13 03:03:00,
2013-06-12 23:33:00,69.7,-99.9,-100.00,North,-999,0.0,0.0,-999,0.00,,,-99.99,WeatherLink 5.4,2013-06-13 03:33:00,